createdAt,value
2023-11-23T00:00:00.149Z,5.5
2023-11-23T00:05:00.077Z,5.6
2023-11-23T00:10:00.082Z,5.8
2023-11-23T00:15:00.091Z,5.3
2023-11-23T00:20:00.249Z,5.8
2023-11-23T00:25:00.115Z,6.2
2023-11-23T00:30:00.108Z,6.8
2023-11-23T00:35:00.083Z,8.1
2023-11-23T00:40:00.120Z,6.9
2023-11-23T00:45:00.153Z,6.3
2023-11-23T00:50:00.087Z,6.4
2023-11-23T00:55:00.069Z,5.5
2023-11-23T01:00:00.158Z,6
2023-11-23T01:05:00.102Z,8.1
2023-11-23T01:10:00.064Z,6
2023-11-23T01:15:00.094Z,5.7
2023-11-23T01:20:00.116Z,4.6
2023-11-23T01:25:00.104Z,5.3
2023-11-23T01:30:00.120Z,5.6
2023-11-23T01:35:00.112Z,5.2
2023-11-23T01:40:00.159Z,6.3
2023-11-23T01:45:00.123Z,5.6
2023-11-23T01:50:00.079Z,5
2023-11-23T01:55:00.112Z,5.9
2023-11-23T02:00:00.317Z,5.5
2023-11-23T02:05:00.081Z,5.9
2023-11-23T02:10:00.106Z,5.1
2023-11-23T02:15:00.118Z,7.4
2023-11-23T02:20:00.151Z,6.8
2023-11-23T02:25:00.116Z,5.9
2023-11-23T02:30:00.092Z,5.9
2023-11-23T02:35:00.113Z,7.4
2023-11-23T02:40:00.156Z,6.5
2023-11-23T02:45:00.115Z,6.8
2023-11-23T02:50:00.088Z,5.8
2023-11-23T02:55:00.098Z,7
2023-11-23T03:00:00.111Z,7.1
2023-11-23T03:05:00.114Z,8.6
2023-11-23T03:10:00.096Z,7.2
2023-11-23T03:15:00.088Z,6.4
2023-11-23T03:20:00.184Z,7.3
2023-11-23T03:25:00.097Z,8.4
2023-11-23T03:30:00.145Z,8.1
2023-11-23T03:35:00.110Z,7.5
2023-11-23T03:40:00.160Z,6.8
2023-11-23T03:45:00.086Z,9.4
2023-11-23T03:50:00.104Z,7.3
2023-11-23T03:55:00.142Z,8.6
2023-11-23T04:00:01.197Z,10.4
2023-11-23T04:05:00.094Z,9.3
2023-11-23T04:10:00.085Z,10.2
2023-11-23T04:15:00.219Z,9.6
2023-11-23T04:20:01.134Z,8.6
2023-11-23T04:25:00.093Z,8.9
2023-11-23T04:30:00.110Z,10.3
2023-11-23T04:35:00.110Z,7.6
2023-11-23T04:40:00.103Z,9.3
2023-11-23T04:45:00.136Z,9.3
2023-11-23T04:50:00.096Z,9.2
2023-11-23T04:55:00.108Z,8.3
2023-11-23T05:00:00.190Z,9.5
2023-11-23T05:05:00.089Z,11
2023-11-23T05:10:00.082Z,9.3
2023-11-23T05:15:00.094Z,6.7
2023-11-23T05:20:00.143Z,8.9
2023-11-23T05:25:00.077Z,10.2
2023-11-23T05:30:00.114Z,11.2
2023-11-23T05:35:00.147Z,8.6
2023-11-23T05:40:00.161Z,9.4
2023-11-23T05:45:00.149Z,9.1
2023-11-23T05:50:00.085Z,9.3
2023-11-23T05:55:00.099Z,10
2023-11-23T06:00:00.255Z,8.6
2023-11-23T06:05:00.220Z,9
2023-11-23T06:10:00.068Z,9.5
2023-11-23T06:15:00.101Z,10
2023-11-23T06:20:00.187Z,8.5
2023-11-23T06:25:00.106Z,10
2023-11-23T06:30:00.099Z,9.3
2023-11-23T06:35:00.115Z,10.2
2023-11-23T06:40:00.126Z,8.3
2023-11-23T06:45:00.110Z,10.1
2023-11-23T06:50:00.083Z,13.8
2023-11-23T06:55:00.103Z,10.4
2023-11-23T07:00:00.251Z,9.8
2023-11-23T07:05:00.106Z,10.5
2023-11-23T07:10:00.101Z,10.5
2023-11-23T07:15:00.125Z,11.5
2023-11-23T07:20:00.189Z,14.2
2023-11-23T07:25:00.098Z,12.8
2023-11-23T07:30:00.101Z,10.5
2023-11-23T07:35:00.090Z,12.4
2023-11-23T07:40:00.133Z,11.1
2023-11-23T07:45:00.134Z,11.9
2023-11-23T07:50:00.068Z,12
2023-11-23T07:55:00.090Z,10.4
2023-11-23T08:00:00.491Z,13.9
2023-11-23T08:05:00.094Z,13.2
2023-11-23T08:10:00.081Z,11.8
2023-11-23T08:15:00.189Z,12.6
2023-11-23T08:20:00.161Z,12.5
2023-11-23T08:25:00.080Z,12.9
2023-11-23T08:30:00.109Z,12.9
2023-11-23T08:35:00.102Z,14.8
2023-11-23T08:40:00.127Z,14.2
2023-11-23T08:45:00.225Z,12.8
2023-11-23T08:50:00.120Z,13.4
2023-11-23T08:55:00.087Z,17.4
2023-11-23T09:00:00.167Z,18.1
2023-11-23T09:05:00.264Z,21.5
2023-11-23T09:10:00.088Z,17.3
2023-11-23T09:15:00.127Z,18
2023-11-23T09:20:00.133Z,20
2023-11-23T09:25:00.111Z,17.5
2023-11-23T09:30:00.314Z,19.6
2023-11-23T09:35:00.085Z,19.6
2023-11-23T09:40:00.146Z,20.6
2023-11-23T09:45:00.136Z,23.2
2023-11-23T09:50:00.071Z,21.7
2023-11-23T09:55:00.091Z,21.3
2023-11-23T10:00:00.191Z,18.3
2023-11-23T10:05:00.105Z,21.5
2023-11-23T10:10:00.086Z,25.1
2023-11-23T10:15:00.854Z,19.7
2023-11-23T10:20:01.156Z,21.9
2023-11-23T10:25:00.076Z,21.9
2023-11-23T10:30:00.127Z,22.2
2023-11-23T10:35:00.100Z,20
2023-11-23T10:40:00.159Z,16.1
2023-11-23T10:45:00.234Z,15.4
2023-11-23T10:50:00.098Z,14.5
2023-11-23T10:55:00.112Z,15
2023-11-23T11:00:00.243Z,14.4
2023-11-23T11:05:00.104Z,13.2
2023-11-23T11:10:00.071Z,14.3
2023-11-23T11:15:00.269Z,12.6
2023-11-23T11:20:00.113Z,12.6
2023-11-23T11:25:00.118Z,12.2
2023-11-23T11:30:00.148Z,12.6
2023-11-23T11:35:00.134Z,11.3
2023-11-23T11:40:00.110Z,12.1
2023-11-23T11:45:00.165Z,10.1
2023-11-23T11:50:00.085Z,11.4
2023-11-23T11:55:00.071Z,11.9
2023-11-23T12:00:00.126Z,13.1
2023-11-23T12:05:00.127Z,12
2023-11-23T12:10:00.163Z,12.6
2023-11-23T12:15:00.165Z,13.3
2023-11-23T12:20:00.117Z,14.7
2023-11-23T12:25:00.095Z,13.9
2023-11-23T12:30:01.116Z,16.4
2023-11-23T12:35:00.110Z,16.8
2023-11-23T12:40:00.147Z,17.3
2023-11-23T12:45:00.113Z,16.3
2023-11-23T12:50:00.072Z,16.5
2023-11-23T12:55:00.101Z,16.4
2023-11-23T13:00:00.250Z,19.4
2023-11-23T13:05:00.097Z,17.9
2023-11-23T13:10:00.081Z,17.2
2023-11-23T13:15:00.102Z,17
2023-11-23T13:20:00.286Z,15.5
2023-11-23T13:25:00.101Z,15.1
2023-11-23T13:30:00.108Z,18.3
2023-11-23T13:35:00.102Z,17.2
2023-11-23T13:40:00.159Z,14.6
2023-11-23T13:45:00.192Z,14.4
2023-11-23T13:50:00.073Z,13
2023-11-23T13:55:00.097Z,13.9
2023-11-23T14:00:00.117Z,14.1
2023-11-23T14:05:00.125Z,14.5
2023-11-23T14:10:00.082Z,14.7
2023-11-23T14:15:00.063Z,15.1
2023-11-23T14:20:00.224Z,16.3
2023-11-23T14:25:00.086Z,12.5
2023-11-23T14:30:00.078Z,15.3
2023-11-23T14:35:00.118Z,11
2023-11-23T14:40:00.127Z,13.7
2023-11-23T14:45:00.110Z,13.8
2023-11-23T14:50:00.068Z,15.9
2023-11-23T14:55:00.136Z,12.5
2023-11-23T15:00:00.170Z,12.5
2023-11-23T15:05:00.086Z,13.2
2023-11-23T15:10:00.076Z,13.9
2023-11-23T15:15:00.134Z,15.3
2023-11-23T15:20:00.182Z,13.1
2023-11-23T15:25:02.922Z,13.4
2023-11-23T15:30:00.069Z,15.3
2023-11-23T15:35:00.160Z,12.1
2023-11-23T15:40:00.211Z,14.5
2023-11-23T15:45:00.112Z,14.5
2023-11-23T15:50:00.080Z,13.6
2023-11-23T15:55:00.070Z,12.3
2023-11-23T16:00:00.118Z,14.1
2023-11-23T16:05:00.108Z,14
2023-11-23T16:10:00.075Z,13.8
2023-11-23T16:15:00.096Z,14.6
2023-11-23T16:20:00.159Z,13.5
2023-11-23T16:25:00.073Z,15
2023-11-23T16:30:00.087Z,16
2023-11-23T16:35:00.097Z,14.4
2023-11-23T16:40:00.116Z,15.4
2023-11-23T16:45:00.082Z,18.1
2023-11-23T16:50:00.083Z,20.4
2023-11-23T16:55:00.083Z,17.4
2023-11-23T17:00:00.152Z,19.9
2023-11-23T17:05:01.226Z,21.2
2023-11-23T17:10:00.080Z,16.5
2023-11-23T17:15:00.148Z,14.4
2023-11-23T17:20:00.156Z,15.5
2023-11-23T17:25:00.118Z,15.6
2023-11-23T17:30:00.075Z,12.3
2023-11-23T17:35:00.198Z,14.9
2023-11-23T17:40:00.271Z,15.1
2023-11-23T17:45:00.089Z,20.1
2023-11-23T17:50:00.074Z,17.2
2023-11-23T17:55:00.107Z,18.3
2023-11-23T18:00:00.179Z,20.1
2023-11-23T18:05:00.087Z,12.8
2023-11-23T18:10:00.085Z,13.2
2023-11-23T18:15:00.085Z,51.3
2023-11-23T18:20:00.173Z,45
2023-11-23T18:25:00.088Z,7.7
2023-11-23T18:30:00.124Z,7.1
2023-11-23T18:35:00.145Z,7.9
2023-11-23T18:40:00.254Z,9.9
2023-11-23T18:45:00.102Z,8.5
2023-11-23T18:50:00.068Z,8.7
2023-11-23T18:55:00.109Z,8.3
2023-11-23T19:00:00.141Z,8
2023-11-23T19:05:00.083Z,8.9
2023-11-23T19:10:00.069Z,7
2023-11-23T19:15:00.112Z,7.4
2023-11-23T19:20:00.118Z,8.1
2023-11-23T19:25:00.097Z,7.3
2023-11-23T19:30:00.071Z,6.8
2023-11-23T19:35:00.123Z,7
2023-11-23T19:40:00.145Z,6.1
2023-11-23T19:45:00.076Z,6.7
2023-11-23T19:50:00.116Z,7.3
2023-11-23T19:55:00.131Z,7.7
2023-11-23T20:00:00.161Z,7.7
2023-11-23T20:05:00.098Z,7.3
2023-11-23T20:10:00.091Z,19.7
2023-11-23T20:15:00.120Z,8.7
2023-11-23T20:20:00.103Z,7.3
2023-11-23T20:25:00.095Z,6.4
2023-11-23T20:30:00.081Z,4.8
2023-11-23T20:35:00.117Z,3.1
2023-11-23T20:40:00.108Z,3.8
2023-11-23T20:45:00.112Z,2.3
2023-11-23T20:50:00.080Z,3.4
2023-11-23T20:55:00.089Z,2.7
2023-11-23T21:00:00.145Z,3.6
2023-11-23T21:05:00.156Z,3
2023-11-23T21:10:00.092Z,5
2023-11-23T21:15:00.093Z,3.4
2023-11-23T21:20:00.157Z,4.8
2023-11-23T21:25:00.077Z,3.1
2023-11-23T21:30:00.082Z,3.3
2023-11-23T21:35:00.080Z,5.2
2023-11-23T21:40:00.156Z,3.8
2023-11-23T21:45:00.102Z,4.1
2023-11-23T21:50:00.067Z,1.6
2023-11-23T21:55:03.399Z,2.4
2023-11-23T22:00:00.119Z,1.9
2023-11-23T22:05:00.107Z,2.6
2023-11-23T22:10:00.088Z,2.3
2023-11-23T22:15:00.079Z,2.3
2023-11-23T22:20:00.124Z,1.7
2023-11-23T22:25:00.169Z,1.9
2023-11-23T22:30:00.077Z,1.4
2023-11-23T22:35:00.100Z,1.1
2023-11-23T22:40:00.307Z,2
2023-11-23T22:45:00.109Z,4.9
2023-11-23T22:50:00.079Z,4.6
2023-11-23T22:55:00.153Z,8.6
2023-11-23T23:00:00.162Z,8
2023-11-23T23:05:00.112Z,9.8
2023-11-23T23:10:00.126Z,6.8
2023-11-23T23:15:00.112Z,8.8
2023-11-23T23:20:00.174Z,8.8
2023-11-23T23:25:00.106Z,8.8
2023-11-23T23:30:00.069Z,8.8
2023-11-23T23:35:00.093Z,9.2
2023-11-23T23:40:00.205Z,9.3
2023-11-23T23:45:00.073Z,7.5
2023-11-23T23:50:00.139Z,6.8
2023-11-23T23:55:00.106Z,7
